sensor_id;sensor_type;location;lat;lon;timestamp;P1;durP1;ratioP1;P2;durP2;ratioP2
20101;SDS011;10210;52.284;9.892;2023-04-03T00:00:41;7.93;;;1.90;;
20101;SDS011;10210;52.284;9.892;2023-04-03T00:03:06;6.13;;;1.60;;
20101;SDS011;10210;52.284;9.892;2023-04-03T00:05:32;9.43;;;2.07;;
20101;SDS011;10210;52.284;9.892;2023-04-03T00:07:58;8.17;;;1.90;;
20101;SDS011;10210;52.284;9.892;2023-04-03T00:10:24;5.30;;;1.90;;
20101;SDS011;10210;52.284;9.892;2023-04-03T00:12:49;6.83;;;2.00;;
20101;SDS011;10210;52.284;9.892;2023-04-03T00:15:16;6.20;;;1.77;;
20101;SDS011;10210;52.284;9.892;2023-04-03T00:17:42;8.33;;;2.20;;
20101;SDS011;10210;52.284;9.892;2023-04-03T00:20:08;6.93;;;1.90;;
20101;SDS011;10210;52.284;9.892;2023-04-03T00:22:34;6.33;;;1.73;;
20101;SDS011;10210;52.284;9.892;2023-04-03T00:25:00;8.37;;;2.10;;
20101;SDS011;10210;52.284;9.892;2023-04-03T00:27:25;6.37;;;1.90;;
20101;SDS011;10210;52.284;9.892;2023-04-03T00:29:51;6.17;;;1.80;;
20101;SDS011;10210;52.284;9.892;2023-04-03T00:32:16;5.77;;;2.00;;
20101;SDS011;10210;52.284;9.892;2023-04-03T00:34:42;5.77;;;1.73;;
20101;SDS011;10210;52.284;9.892;2023-04-03T00:37:08;7.80;;;2.00;;
20101;SDS011;10210;52.284;9.892;2023-04-03T00:39:34;8.30;;;1.83;;
20101;SDS011;10210;52.284;9.892;2023-04-03T00:41:59;8.27;;;1.90;;
20101;SDS011;10210;52.284;9.892;2023-04-03T00:46:53;6.13;;;2.00;;
20101;SDS011;10210;52.284;9.892;2023-04-03T00:49:19;6.73;;;1.70;;
20101;SDS011;10210;52.284;9.892;2023-04-03T00:51:45;9.10;;;2.00;;
20101;SDS011;10210;52.284;9.892;2023-04-03T00:54:11;7.83;;;2.00;;
20101;SDS011;10210;52.284;9.892;2023-04-03T00:56:37;7.87;;;2.00;;
20101;SDS011;10210;52.284;9.892;2023-04-03T00:59:06;8.33;;;2.03;;
20101;SDS011;10210;52.284;9.892;2023-04-03T01:01:50;6.10;;;1.80;;
20101;SDS011;10210;52.284;9.892;2023-04-03T01:04:36;8.90;;;2.13;;
20101;SDS011;10210;52.284;9.892;2023-04-03T01:07:12;8.00;;;1.90;;
20101;SDS011;10210;52.284;9.892;2023-04-03T01:09:44;6.70;;;2.00;;
20101;SDS011;10210;52.284;9.892;2023-04-03T01:12:22;7.60;;;1.90;;
20101;SDS011;10210;52.284;9.892;2023-04-03T01:14:56;9.77;;;2.23;;
20101;SDS011;10210;52.284;9.892;2023-04-03T01:28:07;5.73;;;1.83;;
20101;SDS011;10210;52.284;9.892;2023-04-03T01:30:55;6.27;;;1.83;;
20101;SDS011;10210;52.284;9.892;2023-04-03T01:33:48;8.70;;;1.87;;
20101;SDS011;10210;52.284;9.892;2023-04-03T01:36:17;8.87;;;2.13;;
20101;SDS011;10210;52.284;9.892;2023-04-03T01:38:50;6.80;;;1.93;;
20101;SDS011;10210;52.284;9.892;2023-04-03T01:41:18;7.17;;;2.00;;
20101;SDS011;10210;52.284;9.892;2023-04-03T01:43:47;7.93;;;1.97;;
20101;SDS011;10210;52.284;9.892;2023-04-03T01:46:15;4.97;;;1.80;;
20101;SDS011;10210;52.284;9.892;2023-04-03T01:48:42;7.07;;;2.00;;
20101;SDS011;10210;52.284;9.892;2023-04-03T01:51:08;10.47;;;2.13;;
20101;SDS011;10210;52.284;9.892;2023-04-03T01:53:34;7.00;;;1.87;;
20101;SDS011;10210;52.284;9.892;2023-04-03T01:55:59;7.93;;;1.90;;
20101;SDS011;10210;52.284;9.892;2023-04-03T01:58:25;6.23;;;1.97;;
20101;SDS011;10210;52.284;9.892;2023-04-03T02:00:51;8.30;;;2.10;;
20101;SDS011;10210;52.284;9.892;2023-04-03T02:03:18;8.03;;;2.00;;
20101;SDS011;10210;52.284;9.892;2023-04-03T02:05:44;8.53;;;1.83;;
20101;SDS011;10210;52.284;9.892;2023-04-03T02:08:10;6.50;;;1.70;;
20101;SDS011;10210;52.284;9.892;2023-04-03T02:10:37;6.47;;;2.10;;
20101;SDS011;10210;52.284;9.892;2023-04-03T02:13:03;9.13;;;2.03;;
20101;SDS011;10210;52.284;9.892;2023-04-03T02:15:32;8.30;;;1.93;;
20101;SDS011;10210;52.284;9.892;2023-04-03T02:17:57;7.63;;;1.90;;
20101;SDS011;10210;52.284;9.892;2023-04-03T02:20:23;8.33;;;2.00;;
20101;SDS011;10210;52.284;9.892;2023-04-03T02:22:50;7.20;;;2.20;;
20101;SDS011;10210;52.284;9.892;2023-04-03T02:25:16;7.63;;;2.30;;
20101;SDS011;10210;52.284;9.892;2023-04-03T02:27:42;4.80;;;1.83;;
20101;SDS011;10210;52.284;9.892;2023-04-03T02:30:08;9.40;;;2.20;;
20101;SDS011;10210;52.284;9.892;2023-04-03T02:32:35;12.00;;;2.17;;
20101;SDS011;10210;52.284;9.892;2023-04-03T02:35:01;7.47;;;2.00;;
20101;SDS011;10210;52.284;9.892;2023-04-03T02:37:27;7.37;;;2.07;;
20101;SDS011;10210;52.284;9.892;2023-04-03T02:39:53;9.77;;;2.20;;
20101;SDS011;10210;52.284;9.892;2023-04-03T02:42:19;9.23;;;2.10;;
20101;SDS011;10210;52.284;9.892;2023-04-03T02:44:45;9.50;;;1.90;;
20101;SDS011;10210;52.284;9.892;2023-04-03T02:47:11;9.83;;;2.10;;
20101;SDS011;10210;52.284;9.892;2023-04-03T02:49:37;6.13;;;1.80;;
20101;SDS011;10210;52.284;9.892;2023-04-03T02:52:03;8.70;;;1.83;;
20101;SDS011;10210;52.284;9.892;2023-04-03T02:54:29;6.17;;;1.60;;
20101;SDS011;10210;52.284;9.892;2023-04-03T02:56:55;7.57;;;1.80;;
20101;SDS011;10210;52.284;9.892;2023-04-03T02:59:23;8.43;;;1.90;;
20101;SDS011;10210;52.284;9.892;2023-04-03T03:01:49;7.73;;;2.30;;
20101;SDS011;10210;52.284;9.892;2023-04-03T03:04:16;7.90;;;2.23;;
20101;SDS011;10210;52.284;9.892;2023-04-03T03:06:42;8.40;;;2.00;;
20101;SDS011;10210;52.284;9.892;2023-04-03T03:09:08;5.97;;;1.80;;
20101;SDS011;10210;52.284;9.892;2023-04-03T03:11:33;6.50;;;1.87;;
20101;SDS011;10210;52.284;9.892;2023-04-03T03:13:59;9.20;;;2.33;;
20101;SDS011;10210;52.284;9.892;2023-04-03T03:16:25;9.17;;;2.10;;
20101;SDS011;10210;52.284;9.892;2023-04-03T03:18:51;7.00;;;2.07;;
20101;SDS011;10210;52.284;9.892;2023-04-03T03:21:17;7.53;;;1.80;;
20101;SDS011;10210;52.284;9.892;2023-04-03T03:23:43;7.90;;;2.00;;
20101;SDS011;10210;52.284;9.892;2023-04-03T03:26:11;6.73;;;1.97;;
20101;SDS011;10210;52.284;9.892;2023-04-03T03:28:37;7.73;;;2.00;;
20101;SDS011;10210;52.284;9.892;2023-04-03T03:31:05;9.20;;;2.10;;
20101;SDS011;10210;52.284;9.892;2023-04-03T03:33:33;5.27;;;1.73;;
20101;SDS011;10210;52.284;9.892;2023-04-03T03:35:59;10.20;;;1.90;;
20101;SDS011;10210;52.284;9.892;2023-04-03T03:38:28;11.50;;;2.50;;
20101;SDS011;10210;52.284;9.892;2023-04-03T03:40:54;7.33;;;2.00;;
20101;SDS011;10210;52.284;9.892;2023-04-03T03:43:23;7.93;;;1.90;;
20101;SDS011;10210;52.284;9.892;2023-04-03T03:45:52;9.87;;;2.20;;
20101;SDS011;10210;52.284;9.892;2023-04-03T03:48:18;9.13;;;2.07;;
20101;SDS011;10210;52.284;9.892;2023-04-03T03:50:46;6.73;;;1.90;;
20101;SDS011;10210;52.284;9.892;2023-04-03T03:53:16;8.43;;;2.17;;
20101;SDS011;10210;52.284;9.892;2023-04-03T03:55:42;5.97;;;1.83;;
20101;SDS011;10210;52.284;9.892;2023-04-03T03:58:08;7.77;;;2.13;;
20101;SDS011;10210;52.284;9.892;2023-04-03T04:00:33;9.80;;;1.93;;
20101;SDS011;10210;52.284;9.892;2023-04-03T04:03:00;7.43;;;2.00;;
20101;SDS011;10210;52.284;9.892;2023-04-03T04:05:26;9.30;;;2.00;;
20101;SDS011;10210;52.284;9.892;2023-04-03T04:07:51;7.03;;;1.83;;
20101;SDS011;10210;52.284;9.892;2023-04-03T04:10:17;6.93;;;2.00;;
20101;SDS011;10210;52.284;9.892;2023-04-03T04:12:46;7.70;;;1.90;;
20101;SDS011;10210;52.284;9.892;2023-04-03T04:15:14;11.30;;;2.50;;
20101;SDS011;10210;52.284;9.892;2023-04-03T04:17:40;8.70;;;1.90;;
20101;SDS011;10210;52.284;9.892;2023-04-03T04:20:06;7.23;;;2.03;;
20101;SDS011;10210;52.284;9.892;2023-04-03T04:22:32;7.10;;;1.97;;
20101;SDS011;10210;52.284;9.892;2023-04-03T04:24:58;8.60;;;2.20;;
20101;SDS011;10210;52.284;9.892;2023-04-03T04:27:24;6.03;;;1.93;;
20101;SDS011;10210;52.284;9.892;2023-04-03T04:29:50;8.00;;;1.83;;
20101;SDS011;10210;52.284;9.892;2023-04-03T04:32:16;6.50;;;2.00;;
20101;SDS011;10210;52.284;9.892;2023-04-03T04:34:42;7.33;;;1.90;;
20101;SDS011;10210;52.284;9.892;2023-04-03T04:37:07;6.87;;;2.00;;
20101;SDS011;10210;52.284;9.892;2023-04-03T04:39:34;7.83;;;2.30;;
20101;SDS011;10210;52.284;9.892;2023-04-03T04:42:01;10.07;;;2.30;;
20101;SDS011;10210;52.284;9.892;2023-04-03T04:44:26;7.87;;;2.10;;
20101;SDS011;10210;52.284;9.892;2023-04-03T04:46:52;10.53;;;2.13;;
20101;SDS011;10210;52.284;9.892;2023-04-03T04:49:18;10.37;;;2.27;;
20101;SDS011;10210;52.284;9.892;2023-04-03T04:51:44;8.63;;;2.20;;
20101;SDS011;10210;52.284;9.892;2023-04-03T04:54:10;6.00;;;1.70;;
20101;SDS011;10210;52.284;9.892;2023-04-03T04:56:36;11.73;;;2.10;;
20101;SDS011;10210;52.284;9.892;2023-04-03T04:59:02;7.53;;;2.10;;
20101;SDS011;10210;52.284;9.892;2023-04-03T05:01:27;6.33;;;2.07;;
20101;SDS011;10210;52.284;9.892;2023-04-03T05:03:54;7.10;;;1.83;;
20101;SDS011;10210;52.284;9.892;2023-04-03T05:06:23;9.63;;;2.10;;
20101;SDS011;10210;52.284;9.892;2023-04-03T05:08:48;10.53;;;2.03;;
20101;SDS011;10210;52.284;9.892;2023-04-03T05:11:15;10.47;;;2.07;;
20101;SDS011;10210;52.284;9.892;2023-04-03T05:13:41;8.20;;;1.97;;
20101;SDS011;10210;52.284;9.892;2023-04-03T05:16:09;10.33;;;2.47;;
20101;SDS011;10210;52.284;9.892;2023-04-03T05:18:38;6.00;;;2.10;;
20101;SDS011;10210;52.284;9.892;2023-04-03T05:21:07;9.20;;;2.40;;
20101;SDS011;10210;52.284;9.892;2023-04-03T05:23:35;10.50;;;2.43;;
20101;SDS011;10210;52.284;9.892;2023-04-03T05:26:01;10.87;;;2.10;;
20101;SDS011;10210;52.284;9.892;2023-04-03T05:28:30;7.67;;;2.00;;
20101;SDS011;10210;52.284;9.892;2023-04-03T05:30:57;7.13;;;2.23;;
20101;SDS011;10210;52.284;9.892;2023-04-03T05:33:24;8.43;;;2.57;;
20101;SDS011;10210;52.284;9.892;2023-04-03T05:35:52;9.57;;;2.13;;
20101;SDS011;10210;52.284;9.892;2023-04-03T05:38:19;10.43;;;2.30;;
20101;SDS011;10210;52.284;9.892;2023-04-03T05:40:45;9.07;;;2.20;;
20101;SDS011;10210;52.284;9.892;2023-04-03T05:43:11;9.23;;;2.40;;
20101;SDS011;10210;52.284;9.892;2023-04-03T05:45:36;9.43;;;2.00;;
20101;SDS011;10210;52.284;9.892;2023-04-03T05:48:05;8.37;;;2.43;;
20101;SDS011;10210;52.284;9.892;2023-04-03T05:50:31;8.57;;;2.33;;
20101;SDS011;10210;52.284;9.892;2023-04-03T05:52:57;9.20;;;2.47;;
20101;SDS011;10210;52.284;9.892;2023-04-03T05:55:25;8.00;;;2.43;;
20101;SDS011;10210;52.284;9.892;2023-04-03T05:57:52;7.03;;;2.20;;
20101;SDS011;10210;52.284;9.892;2023-04-03T06:00:18;11.17;;;2.20;;
20101;SDS011;10210;52.284;9.892;2023-04-03T06:02:44;7.73;;;2.20;;
20101;SDS011;10210;52.284;9.892;2023-04-03T06:05:10;11.10;;;2.27;;
20101;SDS011;10210;52.284;9.892;2023-04-03T06:07:37;8.63;;;2.00;;
20101;SDS011;10210;52.284;9.892;2023-04-03T06:10:02;8.57;;;2.20;;
20101;SDS011;10210;52.284;9.892;2023-04-03T06:12:28;8.47;;;2.23;;
20101;SDS011;10210;52.284;9.892;2023-04-03T06:14:54;8.47;;;2.13;;
20101;SDS011;10210;52.284;9.892;2023-04-03T06:17:20;7.97;;;2.27;;
20101;SDS011;10210;52.284;9.892;2023-04-03T06:19:46;10.90;;;2.72;;
20101;SDS011;10210;52.284;9.892;2023-04-03T06:22:12;10.23;;;2.70;;
20101;SDS011;10210;52.284;9.892;2023-04-03T06:24:41;8.57;;;2.27;;
20101;SDS011;10210;52.284;9.892;2023-04-03T06:27:07;9.00;;;2.40;;
20101;SDS011;10210;52.284;9.892;2023-04-03T06:29:35;11.13;;;2.57;;
20101;SDS011;10210;52.284;9.892;2023-04-03T06:32:02;8.67;;;2.43;;
20101;SDS011;10210;52.284;9.892;2023-04-03T06:34:27;10.80;;;2.47;;
20101;SDS011;10210;52.284;9.892;2023-04-03T06:36:53;6.73;;;2.20;;
20101;SDS011;10210;52.284;9.892;2023-04-03T06:39:19;10.60;;;2.40;;
20101;SDS011;10210;52.284;9.892;2023-04-03T06:41:47;9.90;;;2.70;;
20101;SDS011;10210;52.284;9.892;2023-04-03T06:44:14;10.03;;;2.50;;
20101;SDS011;10210;52.284;9.892;2023-04-03T06:46:41;8.30;;;2.30;;
20101;SDS011;10210;52.284;9.892;2023-04-03T06:49:07;13.37;;;2.77;;
20101;SDS011;10210;52.284;9.892;2023-04-03T06:51:34;10.97;;;2.77;;
20101;SDS011;10210;52.284;9.892;2023-04-03T06:54:01;9.30;;;2.50;;
20101;SDS011;10210;52.284;9.892;2023-04-03T06:56:29;8.30;;;2.50;;
20101;SDS011;10210;52.284;9.892;2023-04-03T06:58:55;8.77;;;2.40;;
20101;SDS011;10210;52.284;9.892;2023-04-03T07:01:26;8.80;;;2.40;;
20101;SDS011;10210;52.284;9.892;2023-04-03T07:03:53;13.37;;;2.87;;
20101;SDS011;10210;52.284;9.892;2023-04-03T07:06:21;10.47;;;2.63;;
20101;SDS011;10210;52.284;9.892;2023-04-03T07:08:47;11.73;;;2.97;;
20101;SDS011;10210;52.284;9.892;2023-04-03T07:11:14;9.93;;;2.63;;
20101;SDS011;10210;52.284;9.892;2023-04-03T07:13:41;7.57;;;2.40;;
20101;SDS011;10210;52.284;9.892;2023-04-03T07:16:07;8.37;;;2.30;;
20101;SDS011;10210;52.284;9.892;2023-04-03T07:18:34;9.33;;;2.50;;
20101;SDS011;10210;52.284;9.892;2023-04-03T07:21:00;10.27;;;2.33;;
20101;SDS011;10210;52.284;9.892;2023-04-03T07:23:26;12.70;;;2.80;;
20101;SDS011;10210;52.284;9.892;2023-04-03T07:25:52;10.50;;;2.50;;
20101;SDS011;10210;52.284;9.892;2023-04-03T07:28:19;10.53;;;2.53;;
20101;SDS011;10210;52.284;9.892;2023-04-03T07:30:54;8.83;;;2.27;;
20101;SDS011;10210;52.284;9.892;2023-04-03T07:33:33;7.17;;;2.23;;
20101;SDS011;10210;52.284;9.892;2023-04-03T07:36:01;11.00;;;2.23;;
20101;SDS011;10210;52.284;9.892;2023-04-03T07:38:27;10.07;;;2.30;;
20101;SDS011;10210;52.284;9.892;2023-04-03T07:40:53;10.47;;;2.40;;
20101;SDS011;10210;52.284;9.892;2023-04-03T07:43:20;8.50;;;2.20;;
20101;SDS011;10210;52.284;9.892;2023-04-03T07:45:47;10.60;;;2.20;;
20101;SDS011;10210;52.284;9.892;2023-04-03T07:48:16;9.43;;;2.10;;
20101;SDS011;10210;52.284;9.892;2023-04-03T07:50:44;6.97;;;1.80;;
20101;SDS011;10210;52.284;9.892;2023-04-03T07:53:10;6.30;;;1.73;;
20101;SDS011;10210;52.284;9.892;2023-04-03T07:55:36;4.67;;;1.60;;
20101;SDS011;10210;52.284;9.892;2023-04-03T07:58:08;6.07;;;1.90;;
20101;SDS011;10210;52.284;9.892;2023-04-03T08:00:39;9.60;;;2.00;;
20101;SDS011;10210;52.284;9.892;2023-04-03T08:03:05;7.37;;;2.20;;
20101;SDS011;10210;52.284;9.892;2023-04-03T08:05:40;8.13;;;1.87;;
20101;SDS011;10210;52.284;9.892;2023-04-03T08:08:10;8.63;;;2.03;;
20101;SDS011;10210;52.284;9.892;2023-04-03T08:10:38;10.27;;;2.17;;
20101;SDS011;10210;52.284;9.892;2023-04-03T08:13:08;8.07;;;1.70;;
20101;SDS011;10210;52.284;9.892;2023-04-03T08:15:35;4.93;;;1.87;;
20101;SDS011;10210;52.284;9.892;2023-04-03T08:18:01;8.13;;;2.17;;
20101;SDS011;10210;52.284;9.892;2023-04-03T08:20:28;5.50;;;1.57;;
20101;SDS011;10210;52.284;9.892;2023-04-03T08:22:54;5.90;;;1.43;;
20101;SDS011;10210;52.284;9.892;2023-04-03T08:25:20;7.43;;;1.80;;
20101;SDS011;10210;52.284;9.892;2023-04-03T08:27:47;7.13;;;1.90;;
20101;SDS011;10210;52.284;9.892;2023-04-03T08:30:13;5.93;;;1.83;;
20101;SDS011;10210;52.284;9.892;2023-04-03T08:32:39;6.73;;;1.90;;
20101;SDS011;10210;52.284;9.892;2023-04-03T08:35:07;9.00;;;1.80;;
20101;SDS011;10210;52.284;9.892;2023-04-03T08:37:37;7.30;;;1.90;;
20101;SDS011;10210;52.284;9.892;2023-04-03T08:40:07;6.17;;;1.60;;
20101;SDS011;10210;52.284;9.892;2023-04-03T08:45:46;5.97;;;1.50;;
20101;SDS011;10210;52.284;9.892;2023-04-03T08:51:00;5.80;;;1.43;;
20101;SDS011;10210;52.284;9.892;2023-04-03T08:53:36;6.97;;;1.70;;
20101;SDS011;10210;52.284;9.892;2023-04-03T08:56:09;6.77;;;1.63;;
20101;SDS011;10210;52.284;9.892;2023-04-03T08:58:44;6.97;;;1.53;;
20101;SDS011;10210;52.284;9.892;2023-04-03T09:01:35;7.47;;;1.70;;
20101;SDS011;10210;52.284;9.892;2023-04-03T09:04:10;6.27;;;1.73;;
20101;SDS011;10210;52.284;9.892;2023-04-03T09:06:39;7.70;;;1.77;;
20101;SDS011;10210;52.284;9.892;2023-04-03T09:09:24;8.60;;;1.90;;
20101;SDS011;10210;52.284;9.892;2023-04-03T09:12:21;7.77;;;1.70;;
20101;SDS011;10210;52.284;9.892;2023-04-03T09:15:02;8.30;;;2.03;;
20101;SDS011;10210;52.284;9.892;2023-04-03T09:21:02;8.73;;;1.80;;
20101;SDS011;10210;52.284;9.892;2023-04-03T09:23:50;7.70;;;1.60;;
20101;SDS011;10210;52.284;9.892;2023-04-03T09:26:31;7.50;;;1.73;;
20101;SDS011;10210;52.284;9.892;2023-04-03T09:29:06;6.67;;;1.70;;
20101;SDS011;10210;52.284;9.892;2023-04-03T09:31:40;9.10;;;1.80;;
20101;SDS011;10210;52.284;9.892;2023-04-03T09:34:22;3.87;;;1.60;;
20101;SDS011;10210;52.284;9.892;2023-04-03T09:37:02;9.70;;;1.90;;
20101;SDS011;10210;52.284;9.892;2023-04-03T09:39:32;6.40;;;1.50;;
20101;SDS011;10210;52.284;9.892;2023-04-03T09:42:22;7.27;;;1.80;;
20101;SDS011;10210;52.284;9.892;2023-04-03T09:47:30;6.77;;;1.70;;
20101;SDS011;10210;52.284;9.892;2023-04-03T09:50:15;6.50;;;1.53;;
20101;SDS011;10210;52.284;9.892;2023-04-03T09:52:48;4.07;;;1.40;;
20101;SDS011;10210;52.284;9.892;2023-04-03T09:55:23;7.73;;;1.60;;
20101;SDS011;10210;52.284;9.892;2023-04-03T09:57:55;5.43;;;1.53;;
20101;SDS011;10210;52.284;9.892;2023-04-03T10:03:02;6.93;;;1.77;;
20101;SDS011;10210;52.284;9.892;2023-04-03T10:08:52;5.13;;;1.50;;
20101;SDS011;10210;52.284;9.892;2023-04-03T10:13:55;6.27;;;1.70;;
20101;SDS011;10210;52.284;9.892;2023-04-03T10:25:28;6.43;;;1.60;;
20101;SDS011;10210;52.284;9.892;2023-04-03T10:31:23;6.70;;;1.60;;
20101;SDS011;10210;52.284;9.892;2023-04-03T10:36:43;6.83;;;1.53;;
20101;SDS011;10210;52.284;9.892;2023-04-03T10:42:44;3.93;;;1.33;;
20101;SDS011;10210;52.284;9.892;2023-04-03T10:45:27;6.97;;;1.50;;
20101;SDS011;10210;52.284;9.892;2023-04-03T10:48:47;3.83;;;1.60;;
20101;SDS011;10210;52.284;9.892;2023-04-03T10:51:29;4.73;;;1.23;;
20101;SDS011;10210;52.284;9.892;2023-04-03T10:54:17;6.80;;;1.60;;
20101;SDS011;10210;52.284;9.892;2023-04-03T10:57:04;4.93;;;2.00;;
20101;SDS011;10210;52.284;9.892;2023-04-03T11:03:32;4.07;;;1.17;;
20101;SDS011;10210;52.284;9.892;2023-04-03T11:06:07;4.23;;;1.33;;
20101;SDS011;10210;52.284;9.892;2023-04-03T11:08:48;4.43;;;1.30;;
20101;SDS011;10210;52.284;9.892;2023-04-03T11:11:35;4.80;;;1.33;;
20101;SDS011;10210;52.284;9.892;2023-04-03T11:14:08;5.30;;;1.30;;
20101;SDS011;10210;52.284;9.892;2023-04-03T11:17:10;4.63;;;1.30;;
20101;SDS011;10210;52.284;9.892;2023-04-03T11:20:14;5.90;;;1.50;;
20101;SDS011;10210;52.284;9.892;2023-04-03T11:23:00;3.27;;;1.40;;
20101;SDS011;10210;52.284;9.892;2023-04-03T11:25:51;5.57;;;1.37;;
20101;SDS011;10210;52.284;9.892;2023-04-03T11:28:24;8.27;;;2.00;;
20101;SDS011;10210;52.284;9.892;2023-04-03T11:31:55;7.67;;;1.50;;
20101;SDS011;10210;52.284;9.892;2023-04-03T11:34:18;6.47;;;1.40;;
20101;SDS011;10210;52.284;9.892;2023-04-03T11:42:47;7.07;;;1.80;;
20101;SDS011;10210;52.284;9.892;2023-04-03T11:47:55;4.77;;;1.53;;
20101;SDS011;10210;52.284;9.892;2023-04-03T11:55:54;5.33;;;1.50;;
20101;SDS011;10210;52.284;9.892;2023-04-03T11:58:27;7.53;;;1.70;;
20101;SDS011;10210;52.284;9.892;2023-04-03T12:01:00;7.53;;;2.30;;
20101;SDS011;10210;52.284;9.892;2023-04-03T12:11:23;5.80;;;1.80;;
20101;SDS011;10210;52.284;9.892;2023-04-03T12:16:30;4.23;;;1.30;;
20101;SDS011;10210;52.284;9.892;2023-04-03T12:26:43;4.53;;;1.43;;
20101;SDS011;10210;52.284;9.892;2023-04-03T12:44:19;6.30;;;1.40;;
20101;SDS011;10210;52.284;9.892;2023-04-03T12:47:02;4.23;;;1.30;;
20101;SDS011;10210;52.284;9.892;2023-04-03T12:49:48;4.70;;;1.37;;
20101;SDS011;10210;52.284;9.892;2023-04-03T12:52:22;5.90;;;1.47;;
20101;SDS011;10210;52.284;9.892;2023-04-03T12:54:59;4.10;;;1.40;;
20101;SDS011;10210;52.284;9.892;2023-04-03T12:57:46;4.60;;;1.30;;
20101;SDS011;10210;52.284;9.892;2023-04-03T13:03:00;5.10;;;1.60;;
20101;SDS011;10210;52.284;9.892;2023-04-03T13:05:29;4.00;;;1.40;;
20101;SDS011;10210;52.284;9.892;2023-04-03T13:07:58;3.23;;;1.30;;
20101;SDS011;10210;52.284;9.892;2023-04-03T13:10:32;3.03;;;1.43;;
20101;SDS011;10210;52.284;9.892;2023-04-03T13:13:17;3.17;;;1.40;;
20101;SDS011;10210;52.284;9.892;2023-04-03T13:15:44;4.67;;;1.53;;
20101;SDS011;10210;52.284;9.892;2023-04-03T13:21:12;5.63;;;1.60;;
20101;SDS011;10210;52.284;9.892;2023-04-03T13:23:44;6.97;;;1.70;;
20101;SDS011;10210;52.284;9.892;2023-04-03T13:26:16;5.87;;;1.33;;
20101;SDS011;10210;52.284;9.892;2023-04-03T13:28:46;6.37;;;1.53;;
20101;SDS011;10210;52.284;9.892;2023-04-03T13:34:27;5.77;;;1.97;;
20101;SDS011;10210;52.284;9.892;2023-04-03T13:36:46;4.40;;;1.50;;
20101;SDS011;10210;52.284;9.892;2023-04-03T13:39:27;10.33;;;1.50;;
20101;SDS011;10210;52.284;9.892;2023-04-03T13:42:00;4.23;;;1.43;;
20101;SDS011;10210;52.284;9.892;2023-04-03T13:44:42;5.73;;;1.60;;
20101;SDS011;10210;52.284;9.892;2023-04-03T13:49:38;4.47;;;1.33;;
20101;SDS011;10210;52.284;9.892;2023-04-03T13:54:56;3.00;;;1.30;;
20101;SDS011;10210;52.284;9.892;2023-04-03T13:57:25;5.43;;;1.40;;
20101;SDS011;10210;52.284;9.892;2023-04-03T13:59:51;6.87;;;1.93;;
20101;SDS011;10210;52.284;9.892;2023-04-03T14:02:31;5.83;;;1.57;;
20101;SDS011;10210;52.284;9.892;2023-04-03T14:04:59;6.00;;;1.57;;
20101;SDS011;10210;52.284;9.892;2023-04-03T14:07:29;5.20;;;1.70;;
20101;SDS011;10210;52.284;9.892;2023-04-03T14:09:55;5.90;;;1.63;;
20101;SDS011;10210;52.284;9.892;2023-04-03T14:14:59;5.77;;;1.73;;
20101;SDS011;10210;52.284;9.892;2023-04-03T14:17:27;2.87;;;1.33;;
20101;SDS011;10210;52.284;9.892;2023-04-03T14:19:54;6.20;;;1.70;;
20101;SDS011;10210;52.284;9.892;2023-04-03T14:22:31;7.73;;;1.80;;
20101;SDS011;10210;52.284;9.892;2023-04-03T14:24:59;5.50;;;1.50;;
20101;SDS011;10210;52.284;9.892;2023-04-03T14:27:26;6.37;;;1.60;;
20101;SDS011;10210;52.284;9.892;2023-04-03T14:29:58;6.87;;;1.90;;
20101;SDS011;10210;52.284;9.892;2023-04-03T14:32:24;7.60;;;1.70;;
20101;SDS011;10210;52.284;9.892;2023-04-03T14:34:51;6.00;;;1.63;;
20101;SDS011;10210;52.284;9.892;2023-04-03T14:37:19;6.30;;;1.60;;
20101;SDS011;10210;52.284;9.892;2023-04-03T14:39:49;5.83;;;1.60;;
20101;SDS011;10210;52.284;9.892;2023-04-03T14:42:20;4.83;;;1.43;;
20101;SDS011;10210;52.284;9.892;2023-04-03T14:44:55;5.97;;;2.00;;
20101;SDS011;10210;52.284;9.892;2023-04-03T14:47:26;4.90;;;1.60;;
20101;SDS011;10210;52.284;9.892;2023-04-03T14:52:41;4.90;;;1.50;;
20101;SDS011;10210;52.284;9.892;2023-04-03T14:55:08;4.00;;;1.40;;
20101;SDS011;10210;52.284;9.892;2023-04-03T14:57:34;7.80;;;1.83;;
20101;SDS011;10210;52.284;9.892;2023-04-03T15:00:00;7.17;;;1.60;;
20101;SDS011;10210;52.284;9.892;2023-04-03T15:02:28;4.80;;;1.60;;
20101;SDS011;10210;52.284;9.892;2023-04-03T15:05:00;7.10;;;1.80;;
20101;SDS011;10210;52.284;9.892;2023-04-03T15:07:30;3.90;;;1.30;;
20101;SDS011;10210;52.284;9.892;2023-04-03T15:10:06;5.60;;;1.80;;
20101;SDS011;10210;52.284;9.892;2023-04-03T15:12:51;6.97;;;1.77;;
20101;SDS011;10210;52.284;9.892;2023-04-03T15:15:18;4.33;;;1.50;;
20101;SDS011;10210;52.284;9.892;2023-04-03T15:17:46;3.97;;;1.30;;
20101;SDS011;10210;52.284;9.892;2023-04-03T15:20:20;6.73;;;1.70;;
20101;SDS011;10210;52.284;9.892;2023-04-03T15:22:48;3.23;;;1.37;;
20101;SDS011;10210;52.284;9.892;2023-04-03T15:25:14;5.37;;;1.50;;
20101;SDS011;10210;52.284;9.892;2023-04-03T15:27:40;4.00;;;1.40;;
20101;SDS011;10210;52.284;9.892;2023-04-03T15:30:10;6.53;;;1.70;;
20101;SDS011;10210;52.284;9.892;2023-04-03T15:32:40;5.47;;;1.63;;
20101;SDS011;10210;52.284;9.892;2023-04-03T15:35:06;5.43;;;1.60;;
20101;SDS011;10210;52.284;9.892;2023-04-03T15:37:41;4.87;;;1.50;;
20101;SDS011;10210;52.284;9.892;2023-04-03T15:40:07;3.97;;;1.40;;
20101;SDS011;10210;52.284;9.892;2023-04-03T15:42:33;5.53;;;1.50;;
20101;SDS011;10210;52.284;9.892;2023-04-03T15:44:59;5.87;;;1.67;;
20101;SDS011;10210;52.284;9.892;2023-04-03T15:47:25;3.90;;;1.60;;
20101;SDS011;10210;52.284;9.892;2023-04-03T15:49:51;5.57;;;1.60;;
20101;SDS011;10210;52.284;9.892;2023-04-03T15:52:19;6.93;;;1.67;;
20101;SDS011;10210;52.284;9.892;2023-04-03T15:54:45;3.23;;;1.40;;
20101;SDS011;10210;52.284;9.892;2023-04-03T15:57:10;3.77;;;1.50;;
20101;SDS011;10210;52.284;9.892;2023-04-03T15:59:36;6.97;;;1.90;;
20101;SDS011;10210;52.284;9.892;2023-04-03T16:02:01;4.23;;;1.70;;
20101;SDS011;10210;52.284;9.892;2023-04-03T16:04:31;6.30;;;1.90;;
20101;SDS011;10210;52.284;9.892;2023-04-03T16:07:00;5.57;;;1.60;;
20101;SDS011;10210;52.284;9.892;2023-04-03T16:09:29;4.40;;;1.67;;
20101;SDS011;10210;52.284;9.892;2023-04-03T16:11:57;5.53;;;1.60;;
20101;SDS011;10210;52.284;9.892;2023-04-03T16:14:23;7.33;;;1.60;;
20101;SDS011;10210;52.284;9.892;2023-04-03T16:16:49;6.57;;;1.70;;
20101;SDS011;10210;52.284;9.892;2023-04-03T16:19:15;6.87;;;1.63;;
20101;SDS011;10210;52.284;9.892;2023-04-03T16:21:40;5.23;;;1.50;;
20101;SDS011;10210;52.284;9.892;2023-04-03T16:24:06;5.90;;;1.80;;
20101;SDS011;10210;52.284;9.892;2023-04-03T16:26:32;5.73;;;1.60;;
20101;SDS011;10210;52.284;9.892;2023-04-03T16:28:59;4.97;;;1.50;;
20101;SDS011;10210;52.284;9.892;2023-04-03T16:31:24;6.20;;;1.60;;
20101;SDS011;10210;52.284;9.892;2023-04-03T16:33:54;4.10;;;1.67;;
20101;SDS011;10210;52.284;9.892;2023-04-03T16:36:21;6.97;;;1.67;;
20101;SDS011;10210;52.284;9.892;2023-04-03T16:38:47;3.47;;;1.60;;
20101;SDS011;10210;52.284;9.892;2023-04-03T16:41:12;5.57;;;1.60;;
20101;SDS011;10210;52.284;9.892;2023-04-03T16:43:38;6.10;;;1.87;;
20101;SDS011;10210;52.284;9.892;2023-04-03T16:46:06;7.17;;;1.60;;
20101;SDS011;10210;52.284;9.892;2023-04-03T16:48:34;5.40;;;1.80;;
20101;SDS011;10210;52.284;9.892;2023-04-03T16:51:00;7.23;;;1.70;;
20101;SDS011;10210;52.284;9.892;2023-04-03T16:53:26;5.23;;;1.83;;
20101;SDS011;10210;52.284;9.892;2023-04-03T16:55:52;6.57;;;1.80;;
20101;SDS011;10210;52.284;9.892;2023-04-03T16:58:21;5.50;;;1.70;;
20101;SDS011;10210;52.284;9.892;2023-04-03T17:00:46;7.60;;;2.07;;
20101;SDS011;10210;52.284;9.892;2023-04-03T17:03:12;5.73;;;1.70;;